Time;durP1;ratioP1;P1;durP2;ratioP2;P2;SDS_P1;SDS_P2;PMS_P1;PMS_P2;Temp;Humidity;BMP_temperature;BMP_pressure;BME280_temperature;BME280_humidity;BME280_pressure;Samples;Min_cycle;Max_cycle;Signal;HPM_P1;HPM_P2
2022/01/13 05:03:01;;;;;;;32.85;17.42;;;-1.60;99.90;;;;;;5261631;23;20062;-74
2022/01/13 05:05:28;;;;;;;34.63;17.63;;;-1.60;99.90;;;;;;4933888;29;20712;-74
2022/01/13 05:07:55;;;;;;;33.20;17.63;;;-1.60;99.90;;;;;;4933054;29;20051;-77
2022/01/13 05:10:23;;;;;;;32.13;17.52;;;-1.60;99.90;;;;;;4934298;29;20055;-76
2022/01/13 05:12:54;;;;;;;34.15;17.83;;;-1.60;99.90;;;;;;4934419;29;20159;-74
2022/01/13 05:15:25;;;;;;;30.83;16.85;;;-1.60;99.90;;;;;;4933303;29;20047;-76
2022/01/13 05:20:45;;;;;;;32.27;17.80;;;-1.60;99.90;;;;;;4932091;29;20047;-75
2022/01/13 05:23:13;;;;;;;30.40;16.23;;;-1.60;99.90;;;;;;4929543;29;20787;-75
2022/01/13 05:25:41;;;;;;;35.13;17.73;;;-1.60;99.90;;;;;;4929743;29;20051;-74
2022/01/13 05:28:09;;;;;;;33.95;16.90;;;-1.60;99.90;;;;;;4933508;29;20051;-76
2022/01/13 05:30:36;;;;;;;33.45;16.83;;;-1.60;99.90;;;;;;4932859;29;20047;-76
2022/01/13 05:33:04;;;;;;;32.83;17.48;;;-1.70;99.90;;;;;;4932478;29;20135;-74
2022/01/13 05:35:32;;;;;;;30.17;16.70;;;-1.70;99.90;;;;;;4933341;29;20062;-75
2022/01/13 05:38:00;;;;;;;31.02;16.65;;;-1.80;99.90;;;;;;4933605;29;20119;-75
2022/01/13 05:40:27;;;;;;;32.28;17.02;;;-1.90;99.90;;;;;;4933838;29;20090;-74
2022/01/13 05:42:54;;;;;;;34.75;17.25;;;-1.90;99.90;;;;;;4933659;29;20048;-75
2022/01/13 05:45:28;;;;;;;32.35;16.33;;;-1.90;99.90;;;;;;4933667;29;20139;-74
2022/01/13 05:47:56;;;;;;;33.05;15.50;;;-1.90;99.90;;;;;;4933900;29;20430;-75
2022/01/13 05:50:23;;;;;;;29.15;16.05;;;-1.90;99.90;;;;;;4933942;29;20054;-78
2022/01/13 05:52:50;;;;;;;29.48;16.65;;;-1.90;99.90;;;;;;4934916;29;20054;-75
2022/01/13 05:55:19;;;;;;;33.55;16.80;;;-1.80;99.90;;;;;;4937003;29;20123;-76
2022/01/13 05:57:47;;;;;;;29.42;16.95;;;-1.80;99.90;;;;;;4937531;29;20050;-75
2022/01/13 06:00:18;;;;;;;31.83;17.40;;;-1.80;99.90;;;;;;4935524;29;20048;-74
2022/01/13 06:02:46;;;;;;;30.90;16.85;;;-1.80;99.90;;;;;;4917372;29;20076;-75
2022/01/13 06:05:14;;;;;;;30.52;16.30;;;-1.80;99.90;;;;;;4917793;29;20096;-75
2022/01/13 06:07:41;;;;;;;31.92;16.90;;;-1.80;99.90;;;;;;4917436;29;20499;-75
2022/01/13 06:10:13;;;;;;;30.52;16.50;;;-1.80;99.90;;;;;;4917402;29;20143;-74
2022/01/13 06:12:41;;;;;;;30.15;16.55;;;-1.80;99.90;;;;;;4917483;29;20494;-74
2022/01/13 06:15:12;;;;;;;30.50;16.23;;;-1.80;99.90;;;;;;4917393;29;20048;-75
2022/01/13 06:17:41;;;;;;;31.63;16.33;;;-1.80;99.90;;;;;;4925789;29;20121;-76
2022/01/13 06:20:12;;;;;;;29.58;16.45;;;-1.80;99.90;;;;;;4936155;29;20075;-75
2022/01/13 06:22:41;;;;;;;32.40;16.83;;;-1.80;99.90;;;;;;4936003;29;20760;-75
2022/01/13 06:25:13;;;;;;;31.70;16.60;;;-1.80;99.90;;;;;;4936144;29;20473;-74
2022/01/13 06:27:41;;;;;;;33.17;16.30;;;-1.80;99.90;;;;;;4936034;29;20066;-75
2022/01/13 06:30:14;;;;;;;30.17;16.52;;;-1.70;99.90;;;;;;4935471;29;20071;-74
2022/01/13 06:32:41;;;;;;;29.13;16.48;;;-1.70;99.90;;;;;;4936177;29;20108;-74
2022/01/13 06:35:10;;;;;;;29.75;16.98;;;-1.70;99.90;;;;;;4936256;29;20134;-75
2022/01/13 06:37:37;;;;;;;29.45;16.40;;;-1.70;99.90;;;;;;4936070;29;20048;-74
2022/01/13 06:40:06;;;;;;;33.25;17.27;;;-1.70;99.90;;;;;;4936309;29;20058;-75
2022/01/13 06:42:33;;;;;;;31.20;16.15;;;-1.70;99.90;;;;;;4936172;29;20106;-75
2022/01/13 06:45:01;;;;;;;31.55;16.60;;;-1.70;99.90;;;;;;4940386;29;20056;-76
2022/01/13 06:47:28;;;;;;;30.83;16.60;;;-1.70;99.90;;;;;;4942192;29;20062;-75
2022/01/13 06:49:55;;;;;;;31.13;16.90;;;-1.70;99.90;;;;;;4942303;29;20480;-75
2022/01/13 06:52:22;;;;;;;29.90;16.20;;;-1.80;99.90;;;;;;4942455;29;20142;-74
2022/01/13 06:54:52;;;;;;;28.05;15.32;;;-1.90;99.90;;;;;;4941954;29;20492;-75
2022/01/13 06:57:20;;;;;;;28.83;15.43;;;-1.90;99.90;;;;;;4942277;29;20052;-74
2022/01/13 06:59:47;;;;;;;29.75;15.82;;;-2.00;99.90;;;;;;4945197;29;20047;-74
2022/01/13 07:02:15;;;;;;;31.38;16.95;;;-1.90;99.90;;;;;;4954118;28;20508;-74
2022/01/13 07:04:43;;;;;;;28.88;15.88;;;-2.00;99.90;;;;;;4942228;29;20154;-74
2022/01/13 07:07:10;;;;;;;28.77;15.15;;;-1.90;99.90;;;;;;4941849;29;20512;-75
2022/01/13 07:09:38;;;;;;;29.52;16.05;;;-1.90;99.90;;;;;;4941991;29;20050;-74
2022/01/13 07:12:08;;;;;;;29.67;15.93;;;-1.90;99.90;;;;;;4938828;29;20075;-74
2022/01/13 07:14:35;;;;;;;32.30;17.08;;;-1.90;99.90;;;;;;4927455;29;20052;-76
2022/01/13 07:17:03;;;;;;;30.98;17.48;;;-1.90;99.90;;;;;;4924840;29;20139;-74
2022/01/13 07:19:32;;;;;;;31.42;16.20;;;-1.90;99.90;;;;;;4923199;29;20059;-75
2022/01/13 07:21:59;;;;;;;31.33;16.48;;;-1.90;99.90;;;;;;4923485;29;20048;-75
2022/01/13 07:24:26;;;;;;;31.55;16.60;;;-1.90;99.90;;;;;;4923917;29;20048;-74
2022/01/13 07:26:53;;;;;;;30.73;16.63;;;-1.90;99.90;;;;;;4923546;29;20131;-75
2022/01/13 07:29:20;;;;;;;29.20;15.75;;;-1.90;99.90;;;;;;4923648;29;20048;-75
2022/01/13 07:31:48;;;;;;;29.52;15.57;;;-1.90;99.90;;;;;;4923943;29;20052;-75
2022/01/13 07:34:15;;;;;;;30.17;16.17;;;-1.90;99.90;;;;;;4926115;29;20486;-77
2022/01/13 07:36:44;;;;;;;29.23;15.73;;;-1.90;99.90;;;;;;4925763;29;20139;-76
2022/01/13 07:39:11;;;;;;;29.65;16.70;;;-1.90;99.90;;;;;;4924955;29;20530;-75
2022/01/13 07:41:38;;;;;;;32.85;16.45;;;-1.90;99.90;;;;;;4925109;29;20075;-75
2022/01/13 07:44:07;;;;;;;30.92;16.23;;;-1.80;99.90;;;;;;4925313;29;20044;-75
2022/01/13 07:46:34;;;;;;;31.38;16.40;;;-1.80;99.90;;;;;;4926285;29;20083;-75
2022/01/13 07:49:02;;;;;;;31.88;16.67;;;-1.80;99.90;;;;;;4925400;29;20557;-75
2022/01/13 07:51:29;;;;;;;33.15;17.65;;;-1.80;99.90;;;;;;4924638;29;20473;-75
2022/01/13 07:53:58;;;;;;;33.05;17.85;;;-1.80;99.90;;;;;;4924556;29;20051;-75
2022/01/13 07:56:25;;;;;;;34.40;18.15;;;-1.70;99.90;;;;;;4922811;29;20135;-75
2022/01/13 07:58:52;;;;;;;33.30;17.20;;;-1.80;99.90;;;;;;4921722;29;20139;-77
2022/01/13 08:01:19;;;;;;;31.73;17.33;;;-1.80;99.90;;;;;;4921736;29;20111;-75
2022/01/13 08:03:46;;;;;;;32.38;17.27;;;-1.80;99.90;;;;;;4940294;29;20147;-75
2022/01/13 08:06:14;;;;;;;28.25;15.82;;;-1.80;99.90;;;;;;4939782;29;20062;-75
2022/01/13 08:08:42;;;;;;;29.15;15.98;;;-1.80;99.90;;;;;;4938927;29;20477;-74
2022/01/13 08:11:10;;;;;;;29.60;15.48;;;-1.80;99.90;;;;;;4939336;29;20056;-74
2022/01/13 08:13:37;;;;;;;31.10;15.93;;;-1.90;99.90;;;;;;4939300;29;20071;-75
2022/01/13 08:16:09;;;;;;;30.38;15.82;;;-1.80;99.90;;;;;;4938957;29;20047;-75
2022/01/13 08:21:23;;;;;;;30.20;16.30;;;-1.80;99.90;;;;;;4939954;29;20050;-74
2022/01/13 08:23:50;;;;;;;33.45;16.80;;;-1.80;99.90;;;;;;4939120;29;20138;-75
2022/01/13 08:26:21;;;;;;;28.85;15.90;;;-1.80;99.90;;;;;;4938490;29;20051;-75
2022/01/13 08:28:48;;;;;;;29.60;15.93;;;-1.70;99.90;;;;;;4938435;29;20058;-74
2022/01/13 08:31:15;;;;;;;29.33;15.70;;;-1.70;99.90;;;;;;4936691;29;20514;-74
2022/01/13 08:33:42;;;;;;;32.67;16.73;;;-1.60;99.90;;;;;;4938372;29;20054;-75
2022/01/13 08:36:10;;;;;;;28.80;16.35;;;-1.70;99.90;;;;;;4938129;29;20438;-74
2022/01/13 08:38:37;;;;;;;29.83;16.33;;;-1.60;99.90;;;;;;4938385;29;20050;-74
2022/01/13 08:41:04;;;;;;;28.88;16.38;;;-1.60;99.90;;;;;;4938235;29;20470;-75
2022/01/13 08:43:34;;;;;;;32.42;15.98;;;-1.60;99.90;;;;;;4938501;29;20061;-75
2022/01/13 08:46:03;;;;;;;32.17;16.48;;;-1.50;99.90;;;;;;4937890;29;20558;-75
2022/01/13 08:48:30;;;;;;;32.85;17.08;;;-1.40;99.90;;;;;;4938258;29;20048;-75
2022/01/13 08:50:58;;;;;;;31.30;16.30;;;-1.40;99.90;;;;;;4938342;29;20075;-75
2022/01/13 08:53:25;;;;;;;32.17;17.05;;;-1.30;99.90;;;;;;4937916;29;20127;-75
2022/01/13 08:55:54;;;;;;;31.52;17.13;;;-1.30;99.90;;;;;;4938145;29;20127;-75
2022/01/13 08:58:22;;;;;;;33.33;17.65;;;-1.20;99.90;;;;;;4936622;29;20502;-74
2022/01/13 09:00:55;;;;;;;30.98;16.70;;;-1.10;99.90;;;;;;4938599;29;20052;-75
2022/01/13 09:03:22;;;;;;;31.88;16.60;;;-1.10;99.90;;;;;;4938508;29;20409;-74
2022/01/13 09:05:49;;;;;;;36.00;17.80;;;-1.10;99.90;;;;;;4938609;29;20055;-74
2022/01/13 09:08:16;;;;;;;30.55;16.45;;;-1.00;99.90;;;;;;4937369;29;20087;-75
2022/01/13 09:10:45;;;;;;;29.77;16.60;;;-1.00;99.90;;;;;;4938071;29;20048;-74
2022/01/13 09:13:15;;;;;;;32.90;17.05;;;-1.00;99.90;;;;;;4937506;29;20051;-74
2022/01/13 09:15:45;;;;;;;27.27;14.88;;;-1.00;99.90;;;;;;4937787;29;20056;-75
2022/01/13 09:18:18;;;;;;;31.45;17.38;;;-0.90;99.90;;;;;;4938402;29;20115;-75
2022/01/13 09:20:48;;;;;;;29.67;16.25;;;-0.90;99.90;;;;;;4938044;29;20135;-77
2022/01/13 09:23:15;;;;;;;30.25;16.38;;;-0.90;99.90;;;;;;4926339;29;20151;-76
2022/01/13 09:25:42;;;;;;;29.65;16.27;;;-0.90;99.90;;;;;;4919124;29;20474;-75
2022/01/13 09:28:09;;;;;;;31.73;16.65;;;-0.90;99.90;;;;;;4918737;29;20060;-75
2022/01/13 09:30:37;;;;;;;31.30;16.33;;;-0.90;99.90;;;;;;4918169;29;20565;-75
2022/01/13 09:33:05;;;;;;;32.33;16.90;;;-0.90;99.90;;;;;;4917296;29;20051;-75
2022/01/13 09:35:35;;;;;;;37.83;18.00;;;-0.80;99.90;;;;;;4918081;29;20126;-75
2022/01/13 09:38:03;;;;;;;33.35;17.85;;;-0.80;99.90;;;;;;4917910;29;20056;-75
2022/01/13 09:40:30;;;;;;;30.00;16.75;;;-0.80;99.90;;;;;;4918319;29;20245;-75
2022/01/13 09:42:57;;;;;;;32.92;17.77;;;-0.80;99.90;;;;;;4918154;29;20044;-75
2022/01/13 09:45:24;;;;;;;36.40;19.25;;;-0.80;99.90;;;;;;4928808;29;20059;-76
2022/01/13 09:47:52;;;;;;;32.00;17.42;;;-0.80;99.90;;;;;;4936627;29;20502;-75
2022/01/13 09:50:21;;;;;;;31.45;17.98;;;-0.70;99.90;;;;;;4918166;29;20127;-74
2022/01/13 09:52:50;;;;;;;31.85;17.65;;;-0.70;99.90;;;;;;4917780;29;20044;-75
2022/01/13 09:55:18;;;;;;;33.15;17.33;;;-0.60;99.90;;;;;;4917556;29;20084;-77
2022/01/13 09:57:48;;;;;;;37.08;19.15;;;-0.60;99.90;;;;;;4917853;29;20055;-76
2022/01/13 10:00:21;;;;;;;31.42;16.38;;;-0.50;99.90;;;;;;4917825;29;20422;-74
2022/01/13 10:02:48;;;;;;;31.23;17.27;;;-0.50;99.90;;;;;;4929025;29;20055;-75
2022/01/13 10:05:18;;;;;;;32.60;17.75;;;-0.40;99.90;;;;;;4936655;29;20512;-74
2022/01/13 10:07:49;;;;;;;32.17;17.75;;;-0.40;99.90;;;;;;4936411;29;20142;-75
2022/01/13 10:10:19;;;;;;;32.22;18.00;;;-0.30;99.90;;;;;;4936557;29;20071;-73
2022/01/13 10:12:48;;;;;;;36.47;18.73;;;-0.30;99.90;;;;;;4936568;29;20485;-76
2022/01/13 10:18:04;;;;;;;32.65;18.15;;;-0.20;99.90;;;;;;4935818;29;20062;-76
2022/01/13 10:20:32;;;;;;;32.13;18.42;;;-0.10;99.90;;;;;;4936070;29;20063;-76
2022/01/13 10:23:08;;;;;;;32.05;17.55;;;-0.10;99.90;;;;;;4936805;29;20052;-76
2022/01/13 10:25:38;;;;;;;33.90;17.92;;;0.00;99.90;;;;;;4935941;29;20054;-75
2022/01/13 10:28:17;;;;;;;35.72;18.63;;;0.00;99.90;;;;;;4918156;29;20048;-74
2022/01/13 10:30:49;;;;;;;31.00;17.08;;;0.10;99.90;;;;;;4917133;29;20087;-75
2022/01/13 10:33:22;;;;;;;33.67;17.70;;;0.10;99.90;;;;;;4917985;29;20052;-74
2022/01/13 10:35:51;;;;;;;32.85;18.52;;;0.20;99.90;;;;;;4918174;29;20048;-75
2022/01/13 10:38:21;;;;;;;30.55;17.60;;;0.20;99.90;;;;;;4918160;29;20071;-74
2022/01/13 10:40:53;;;;;;;30.90;16.92;;;0.30;99.90;;;;;;4918211;29;20487;-74
2022/01/13 10:43:26;;;;;;;30.00;16.58;;;0.40;99.90;;;;;;4918159;29;20063;-73
2022/01/13 10:45:56;;;;;;;29.95;17.02;;;0.40;99.90;;;;;;4919147;29;20054;-75
2022/01/13 10:48:25;;;;;;;31.92;18.05;;;0.50;99.90;;;;;;4918240;29;20405;-75
2022/01/13 10:50:56;;;;;;;30.30;17.63;;;0.60;99.90;;;;;;4929704;29;20050;-74
2022/01/13 10:53:29;;;;;;;32.38;17.67;;;0.60;99.90;;;;;;4936103;29;20589;-75
2022/01/13 10:55:59;;;;;;;29.40;16.88;;;0.70;99.90;;;;;;4933690;29;20047;-75
2022/01/13 10:58:29;;;;;;;33.80;17.30;;;0.70;99.90;;;;;;4935478;29;20135;-74
2022/01/13 11:00:57;;;;;;;28.55;16.70;;;0.80;99.90;;;;;;4935943;29;20044;-75
2022/01/13 11:03:27;;;;;;;32.03;17.52;;;0.90;99.90;;;;;;4934727;29;20085;-75
2022/01/13 11:05:56;;;;;;;30.25;17.40;;;0.90;99.90;;;;;;4936137;29;20054;-75
2022/01/13 11:08:31;;;;;;;31.58;18.17;;;1.00;99.90;;;;;;4936575;29;20159;-74
2022/01/13 11:10:59;;;;;;;;;;;1.10;99.90;;;;;;4936830;29;20067;-75
2022/01/13 11:13:35;;;;;;;30.27;16.50;;;1.10;99.90;;;;;;4936150;29;20025;-74
2022/01/13 11:16:02;;;;;;;33.88;16.92;;;1.20;99.70;;;;;;4936221;29;20048;-75
2022/01/13 11:18:33;;;;;;;30.73;17.65;;;1.20;99.70;;;;;;4935092;29;20139;-74
2022/01/13 11:21:01;;;;;;;29.38;17.50;;;1.30;99.70;;;;;;4936008;29;20138;-74
2022/01/13 11:23:32;;;;;;;33.58;18.02;;;1.30;99.70;;;;;;4935651;29;20055;-76
2022/01/13 11:25:59;;;;;;;32.30;17.90;;;1.40;99.80;;;;;;4931219;29;20087;-75
2022/01/13 11:28:27;;;;;;;33.25;18.45;;;1.50;99.60;;;;;;4934455;29;20131;-74
2022/01/13 11:30:54;;;;;;;30.45;17.98;;;1.50;99.60;;;;;;4936814;29;20500;-74
2022/01/13 11:33:23;;;;;;;34.72;19.38;;;1.60;99.20;;;;;;4937122;29;20052;-75
2022/01/13 11:35:55;;;;;;;32.33;18.88;;;1.60;99.00;;;;;;4933864;29;20497;-74
2022/01/13 11:38:25;;;;;;;29.98;18.25;;;1.70;98.90;;;;;;4937902;29;20099;-75
2022/01/13 11:41:00;;;;;;;34.72;18.05;;;1.70;98.90;;;;;;4931800;29;20127;-76
2022/01/13 11:43:33;;;;;;;31.23;18.17;;;1.80;99.00;;;;;;4938905;29;20048;-75
2022/01/13 11:46:18;;;;;;;30.27;17.88;;;1.80;99.10;;;;;;4938681;29;20051;-75
2022/01/13 11:49:15;;;;;;;30.25;18.02;;;1.90;99.20;;;;;;4938317;29;20051;-73
2022/01/13 11:51:46;;;;;;;30.77;18.20;;;2.00;98.80;;;;;;4915095;29;20126;-77
2022/01/13 11:54:30;;;;;;;31.33;18.98;;;2.10;98.40;;;;;;4929872;29;20052;-75
2022/01/13 11:57:16;;;;;;;31.60;18.83;;;2.20;98.30;;;;;;4939448;29;20482;-74
2022/01/13 12:00:22;;;;;;;31.23;17.60;;;2.30;98.30;;;;;;4937426;29;20130;-75
2022/01/13 12:02:49;;;;;;;29.80;17.60;;;2.40;98.20;;;;;;4917558;29;20055;-75
2022/01/13 12:05:19;;;;;;;30.60;18.10;;;2.50;97.90;;;;;;4932031;29;20048;-75
2022/01/13 12:07:48;;;;;;;28.42;17.20;;;2.60;97.70;;;;;;4927794;29;20080;-74
2022/01/13 12:10:50;;;;;;;25.33;15.82;;;2.70;97.60;;;;;;4931022;29;20051;-74
2022/01/13 12:13:43;;;;;;;28.17;16.33;;;2.80;97.80;;;;;;4945967;29;20056;-75
2022/01/13 12:16:12;;;;;;;28.38;16.13;;;2.90;97.90;;;;;;4936017;29;20493;-75
2022/01/13 12:19:09;;;;;;;29.98;17.33;;;3.10;97.80;;;;;;4939254;29;20122;-75
2022/01/13 12:21:43;;;;;;;30.30;17.42;;;3.20;97.50;;;;;;4932372;29;20046;-75
2022/01/13 12:24:18;;;;;;;29.05;17.58;;;3.40;97.10;;;;;;4944266;29;20143;-75
2022/01/13 12:26:48;;;;;;;;;;;3.50;96.50;;;;;;4933926;29;20047;-75
2022/01/13 12:29:21;;;;;;;30.42;17.02;;;3.70;96.40;;;;;;4933526;29;19982;-75
2022/01/13 12:31:57;;;;;;;28.20;16.60;;;3.80;96.30;;;;;;4933700;29;20044;-75
2022/01/13 12:34:47;;;;;;;29.75;17.15;;;3.90;96.30;;;;;;4933380;29;20043;-78
2022/01/13 12:37:27;;;;;;;27.20;16.27;;;4.10;96.00;;;;;;4933486;29;20135;-74
2022/01/13 12:39:59;;;;;;;27.30;16.90;;;4.30;95.70;;;;;;4928557;29;20047;-75
2022/01/13 12:42:37;;;;;;;27.85;15.63;;;4.50;95.30;;;;;;4931895;29;20130;-76
2022/01/13 12:47:54;;;;;;;26.65;16.15;;;4.80;94.90;;;;;;4928511;29;20398;-75
2022/01/13 12:50:25;;;;;;;26.58;16.73;;;5.00;94.40;;;;;;4932277;29;20489;-75
2022/01/13 12:52:57;;;;;;;27.98;16.98;;;5.20;94.30;;;;;;4932775;29;20533;-75
2022/01/13 12:55:24;;;;;;;27.77;17.60;;;5.30;93.90;;;;;;4932623;29;20040;-76
2022/01/13 12:57:55;;;;;;;26.95;16.92;;;5.50;93.20;;;;;;4932786;29;20135;-77
2022/01/13 13:00:26;;;;;;;28.60;17.17;;;5.70;93.10;;;;;;4932724;29;20062;-76
2022/01/13 13:03:05;;;;;;;28.52;17.50;;;6.00;92.30;;;;;;4935483;29;20055;-75
2022/01/13 13:05:44;;;;;;;26.23;16.23;;;6.20;91.80;;;;;;4932004;29;20131;-74
2022/01/13 13:08:17;;;;;;;25.80;16.55;;;6.50;90.80;;;;;;4931301;29;20135;-76
2022/01/13 13:10:47;;;;;;;25.85;16.92;;;6.70;90.20;;;;;;4932907;29;20496;-74
2022/01/13 13:13:17;;;;;;;26.75;17.52;;;7.10;89.30;;;;;;4932631;29;20458;-74
2022/01/13 13:15:58;;;;;;;26.33;16.60;;;7.70;89.40;;;;;;4932834;29;20039;-75
2022/01/13 13:18:28;;;;;;;26.40;17.02;;;8.60;85.20;;;;;;4932059;29;20736;-74
2022/01/13 13:20:57;;;;;;;25.15;16.90;;;10.30;78.30;;;;;;4931945;29;20053;-75
2022/01/13 13:23:27;;;;;;;24.00;16.00;;;12.40;75.40;;;;;;4932141;29;20059;-74
2022/01/13 13:25:56;;;;;;;21.70;15.45;;;14.50;59.20;;;;;;4932517;29;20079;-77
2022/01/13 13:28:33;;;;;;;21.15;15.48;;;16.70;52.30;;;;;;4932089;29;20058;-77
2022/01/13 13:31:09;;;;;;;20.55;14.90;;;18.80;46.80;;;;;;4924122;29;20056;-74
2022/01/13 13:33:40;;;;;;;21.10;15.02;;;20.70;42.60;;;;;;4925554;29;20528;-75
2022/01/13 13:36:10;;;;;;;18.52;14.50;;;22.30;39.80;;;;;;4926442;29;20060;-74
2022/01/13 13:38:56;;;;;;;18.65;14.23;;;22.90;38.10;;;;;;4931728;29;20062;-74
2022/01/13 13:41:25;;;;;;;18.27;13.90;;;23.00;36.50;;;;;;4930355;29;20623;-76
2022/01/13 13:43:54;;;;;;;18.23;13.77;;;22.90;36.10;;;;;;4925933;29;20039;-75
2022/01/13 13:46:23;;;;;;;17.60;13.73;;;22.70;35.90;;;;;;4929395;29;20050;-77
2022/01/13 13:48:51;;;;;;;20.13;14.68;;;22.80;35.80;;;;;;4932401;29;20062;-77
2022/01/13 13:51:22;;;;;;;17.55;14.25;;;22.80;35.50;;;;;;4928456;29;20397;-77
2022/01/13 13:54:16;;;;;;;18.80;15.00;;;22.80;35.40;;;;;;4932141;29;20050;-77
2022/01/13 13:56:49;;;;;;;18.30;13.93;;;23.00;35.20;;;;;;4927993;29;20047;-74
2022/01/13 13:59:21;;;;;;;17.30;13.75;;;23.10;35.00;;;;;;4933626;29;20139;-74
2022/01/13 14:02:05;;;;;;;19.33;15.02;;;23.50;34.60;;;;;;4934243;29;20404;-77
2022/01/13 14:04:43;;;;;;;17.02;14.20;;;23.80;34.10;;;;;;4925439;29;20051;-76
2022/01/13 14:07:25;;;;;;;17.15;13.77;;;24.40;33.80;;;;;;4933276;29;20051;-76
2022/01/13 14:10:15;;;;;;;16.52;13.25;;;25.40;33.10;;;;;;4929673;29;20393;-76
2022/01/13 14:12:45;;;;;;;16.45;13.32;;;26.40;32.30;;;;;;4930293;29;20044;-76
2022/01/13 14:15:20;;;;;;;17.33;13.60;;;27.30;31.50;;;;;;4936637;29;20086;-76
2022/01/13 14:17:51;;;;;;;17.17;12.52;;;28.20;30.90;;;;;;4930395;29;20127;-77
2022/01/13 14:20:20;;;;;;;15.63;12.38;;;28.90;30.40;;;;;;4932648;29;20126;-77
2022/01/13 14:22:59;;;;;;;16.70;12.63;;;29.20;30.00;;;;;;4933310;29;20045;-76
2022/01/13 14:25:31;;;;;;;15.68;12.57;;;29.70;29.80;;;;;;4935234;29;20122;-75
2022/01/13 14:28:00;;;;;;;16.20;12.95;;;30.10;29.50;;;;;;4931231;29;20055;-76
2022/01/13 14:30:37;;;;;;;16.05;13.13;;;30.20;29.20;;;;;;4929441;29;20138;-74
2022/01/13 14:33:24;;;;;;;15.25;12.15;;;30.20;29.10;;;;;;4930333;29;20058;-77
2022/01/13 14:36:14;;;;;;;16.90;13.02;;;30.20;29.10;;;;;;4926000;29;20051;-75
2022/01/13 14:38:49;;;;;;;16.38;13.32;;;30.10;28.90;;;;;;4930908;29;20044;-76
2022/01/13 14:41:31;;;;;;;15.15;12.50;;;30.00;29.20;;;;;;4931071;29;20963;-78
2022/01/13 14:44:01;;;;;;;16.88;13.10;;;30.00;28.80;;;;;;4931704;29;20039;-74
2022/01/13 14:46:30;;;;;;;19.58;12.88;;;29.80;28.80;;;;;;4929698;29;20044;-76
2022/01/13 14:48:59;;;;;;;16.75;12.40;;;29.80;28.90;;;;;;4931356;29;20130;-76
2022/01/13 14:51:27;;;;;;;16.60;13.15;;;29.50;29.40;;;;;;4930632;29;20055;-75
2022/01/13 14:53:54;;;;;;;16.08;13.20;;;29.20;28.90;;;;;;4931012;29;20043;-75
2022/01/13 14:56:24;;;;;;;18.30;13.13;;;28.50;29.00;;;;;;4929317;29;20052;-75
2022/01/13 14:58:52;;;;;;;17.80;14.07;;;27.20;29.30;;;;;;4930447;29;20051;-73
2022/01/13 15:01:20;;;;;;;16.35;13.30;;;25.40;30.00;;;;;;4927636;29;20414;-76
2022/01/13 15:03:47;;;;;;;17.85;14.23;;;24.00;31.40;;;;;;4929941;29;20086;-75
2022/01/13 15:06:17;;;;;;;17.77;13.80;;;22.90;32.50;;;;;;4933693;29;20132;-76
2022/01/13 15:08:44;;;;;;;18.13;13.70;;;22.20;34.10;;;;;;4934310;29;20044;-73
2022/01/13 15:11:15;;;;;;;20.35;14.27;;;21.50;34.20;;;;;;4934731;29;20054;-77
2022/01/13 15:13:44;;;;;;;18.75;13.68;;;20.90;35.00;;;;;;4934439;29;20100;-77
2022/01/13 15:16:11;;;;;;;18.65;13.25;;;20.30;35.60;;;;;;4933428;29;20112;-77
2022/01/13 15:18:38;;;;;;;19.00;13.55;;;19.70;36.30;;;;;;4934796;29;20047;-78
2022/01/13 15:21:06;;;;;;;21.75;16.30;;;19.30;36.90;;;;;;4933760;29;20504;-79
2022/01/13 15:23:36;;;;;;;22.67;16.60;;;19.10;37.50;;;;;;4928099;29;20044;-80
2022/01/13 15:26:07;;;;;;;18.13;13.30;;;18.80;37.80;;;;;;4934768;29;20050;-75
2022/01/13 15:28:34;;;;;;;19.38;13.82;;;18.40;38.20;;;;;;4928452;29;20482;-78
2022/01/13 15:31:01;;;;;;;20.67;14.38;;;18.10;38.70;;;;;;4935320;29;20047;-77
2022/01/13 15:33:28;;;;;;;19.30;14.20;;;17.80;39.00;;;;;;4935724;29;20585;-77
2022/01/13 15:35:55;;;;;;;18.38;14.25;;;17.40;39.40;;;;;;4934305;29;20054;-76
2022/01/13 15:38:23;;;;;;;18.42;13.98;;;16.60;40.90;;;;;;4934161;29;20494;-75
2022/01/13 15:40:53;;;;;;;19.45;14.23;;;15.50;41.70;;;;;;4934798;29;20546;-75
2022/01/13 15:43:22;;;;;;;19.67;14.18;;;14.30;43.10;;;;;;4933931;29;20056;-74
2022/01/13 15:45:49;;;;;;;21.83;15.10;;;13.30;45.10;;;;;;4934089;29;20058;-76
2022/01/13 15:48:16;;;;;;;21.02;14.20;;;12.30;46.90;;;;;;4933239;29;20062;-75
2022/01/13 15:50:44;;;;;;;21.58;14.82;;;11.40;48.60;;;;;;4932516;29;20054;-75
2022/01/13 15:53:11;;;;;;;21.08;14.57;;;10.70;50.40;;;;;;4935352;29;20375;-74
2022/01/13 15:55:39;;;;;;;22.50;14.93;;;;;;;;;;4934399;29;20043;-75
2022/01/13 15:58:08;;;;;;;22.38;14.43;;;;;;;;;;4933853;29;20053;-74
2022/01/13 16:00:38;;;;;;;21.60;13.73;;;;;;;;;;4932253;29;20075;-74
2022/01/13 16:03:05;;;;;;;23.17;14.55;;;;;;;;;;4936620;29;20064;-75
2022/01/13 16:05:33;;;;;;;21.38;13.57;;;;;;;;;;4926925;29;20130;-75
2022/01/13 16:08:00;;;;;;;23.73;15.27;;;;;;;;;;4937326;29;20062;-74
2022/01/13 16:10:28;;;;;;;22.80;14.27;;;;;;;;;;4941068;29;20051;-75
2022/01/13 16:12:55;;;;;;;22.85;14.20;;;;;;;;;;4939791;29;20221;-74
2022/01/13 16:15:24;;;;;;;25.95;14.35;;;;;;;;;;4934438;29;20146;-74
2022/01/13 16:17:51;;;;;;;23.25;14.35;;;;;;;;;;4931589;29;20179;-73
2022/01/13 16:20:20;;;;;;;20.77;13.23;;;;;;;;;;4940263;29;20098;-76
2022/01/13 16:22:48;;;;;;;24.58;14.38;;;;;;;;;;4933458;29;20162;-74
2022/01/13 16:25:17;;;;;;;24.55;13.60;;;;;;;;;;4933165;29;20044;-75
2022/01/13 16:27:44;;;;;;;23.42;14.40;;;;;;;;;;4933161;29;20050;-74
2022/01/13 16:30:14;;;;;;;24.55;14.85;;;;;;;;;;4933284;29;20199;-74
2022/01/13 16:32:44;;;;;;;25.45;15.27;;;;;;;;;;4939242;29;20130;-75
2022/01/13 16:35:13;;;;;;;23.63;14.88;;;;;;;;;;4935483;29;20048;-74
2022/01/13 16:37:42;;;;;;;22.63;14.40;;;;;;;;;;4938147;29;20136;-76
2022/01/13 16:40:11;;;;;;;23.00;14.98;;;;;;;;;;4932881;29;20498;-75
2022/01/13 16:42:43;;;;;;;24.15;14.63;;;;;;;;;;4933719;29;20047;-74
2022/01/13 16:45:12;;;;;;;23.80;14.68;;;;;;;;;;4925101;29;20099;-74
2022/01/13 16:47:39;;;;;;;25.58;15.32;;;;;;;;;;4934564;29;20054;-77
2022/01/13 16:50:10;;;;;;;26.17;15.02;;;;;;;;;;4933143;29;20055;-74
2022/01/13 16:52:38;;;;;;;25.60;15.18;;;;;;;;;;4932784;29;20139;-75
2022/01/13 16:55:06;;;;;;;25.90;15.70;;;;;;;;;;4932893;29;20166;-74
2022/01/13 16:57:34;;;;;;;24.77;14.98;;;;;;;;;;4926124;29;20402;-75
2022/01/13 17:00:02;;;;;;;25.00;15.57;;;;;;;;;;4932992;29;20048;-75
2022/01/13 17:02:30;;;;;;;26.33;15.70;;;;;;;;;;4933019;29;20127;-75
2022/01/13 17:04:58;;;;;;;25.92;16.05;;;;;;;;;;4931297;29;20126;-75
2022/01/13 17:07:26;;;;;;;30.20;16.52;;;;;;;;;;4938694;29;20131;-73
2022/01/13 17:09:54;;;;;;;27.02;15.80;;;;;;;;;;4931063;29;20095;-76
2022/01/13 17:12:21;;;;;;;24.15;15.45;;;;;;;;;;4930943;29;20079;-75
2022/01/13 17:14:49;;;;;;;28.13;15.82;;;;;;;;;;4930870;29;20048;-75
2022/01/13 17:17:16;;;;;;;28.85;16.88;;;;;;;;;;4929277;29;20052;-77
2022/01/13 17:19:44;;;;;;;26.65;16.15;;;;;;;;;;4923858;29;20044;-75
2022/01/13 17:22:11;;;;;;;27.90;15.52;;;;;;;;;;4932947;29;20051;-76
2022/01/13 17:24:40;;;;;;;26.52;15.13;;;;;;;;;;4933579;29;20071;-76
2022/01/13 17:27:08;;;;;;;36.80;15.55;;;;;;;;;;4933474;29;20051;-76
2022/01/13 17:29:35;;;;;;;25.08;14.68;;;;;;;;;;4933060;29;20561;-77
2022/01/13 17:32:03;;;;;;;25.55;14.65;;;;;;;;;;4933039;29;20136;-75
2022/01/13 17:34:30;;;;;;;23.10;15.18;;;;;;;;;;4933736;29;20486;-75
2022/01/13 17:36:58;;;;;;;25.83;14.82;;;;;;;;;;4933316;29;20498;-76
2022/01/13 17:39:25;;;;;;;25.05;14.98;;;;;;;;;;4933512;29;20055;-77
2022/01/13 17:41:54;;;;;;;23.58;14.45;;;;;;;;;;4932896;29;20134;-76
2022/01/13 17:44:21;;;;;;;24.27;14.27;;;;;;;;;;4933201;29;20132;-76
2022/01/13 17:46:49;;;;;;;25.13;14.77;;;;;;;;;;4932280;29;20043;-77
2022/01/13 17:49:17;;;;;;;26.70;15.32;;;;;;;;;;4933296;29;20130;-76
2022/01/13 17:51:44;;;;;;;26.88;15.77;;;;;;;;;;4933133;29;20048;-76
2022/01/13 17:54:11;;;;;;;27.70;15.68;;;;;;;;;;4932186;29;20052;-76
2022/01/13 17:56:39;;;;;;;26.48;15.85;;;;;;;;;;4932882;29;20150;-76
2022/01/13 17:59:09;;;;;;;26.33;15.35;;;;;;;;;;4933039;29;20596;-76
2022/01/13 18:01:37;;;;;;;28.92;16.08;;;;;;;;;;4932056;29;20134;-77
2022/01/13 18:04:05;;;;;;;27.25;15.45;;;;;;;;;;4929818;29;20052;-75
2022/01/13 18:06:33;;;;;;;27.90;16.23;;;;;;;;;;4932215;29;20047;-77
2022/01/13 18:09:00;;;;;;;26.95;15.98;;;;;;;;;;4932036;29;20062;-76
2022/01/13 18:11:32;;;;;;;26.38;16.02;;;;;;;;;;4931039;29;20107;-75
2022/01/13 18:14:00;;;;;;;24.90;14.73;;;;;;;;;;4931030;29;20127;-79
2022/01/13 18:16:29;;;;;;;23.23;13.68;;;;;;;;;;4931980;29;20051;-80